createdAt,value
2023-02-03T00:00:18.236Z,66.70
2023-02-03T00:03:19.977Z,67.01
2023-02-03T00:06:21.925Z,67.20
2023-02-03T00:09:23.590Z,67.28
2023-02-03T00:12:25.173Z,67.25
2023-02-03T00:15:27.335Z,67.39
2023-02-03T00:18:28.920Z,67.40
2023-02-03T00:21:30.590Z,67.17
2023-02-03T00:24:32.274Z,67.14
2023-02-03T00:27:33.846Z,67.26
2023-02-03T00:30:36.099Z,67.35
2023-02-03T00:33:39.106Z,67.32
2023-02-03T00:36:42.871Z,67.65
2023-02-03T00:39:44.764Z,68.05
2023-02-03T00:42:46.450Z,68.17
2023-02-03T00:45:48.140Z,68.20
2023-02-03T00:48:49.875Z,68.32
2023-02-03T00:51:52.220Z,68.48
2023-02-03T00:54:55.970Z,68.21
2023-02-03T00:57:57.591Z,68.26
2023-02-03T01:00:59.306Z,68.21
2023-02-03T01:04:00.960Z,68.44
2023-02-03T01:07:02.650Z,68.66
2023-02-03T01:10:05.459Z,68.50
2023-02-03T01:13:08.078Z,68.82
2023-02-03T01:16:12.370Z,68.69
2023-02-03T01:19:14.901Z,68.73
2023-02-03T01:22:16.472Z,68.53
2023-02-03T01:25:22.424Z,68.57
2023-02-03T01:28:24.059Z,68.89
2023-02-03T01:31:32.865Z,69.09
2023-02-03T01:34:34.538Z,69.02
2023-02-03T01:37:36.135Z,69.12
2023-02-03T01:40:45.337Z,69.18
2023-02-03T01:43:51.276Z,69.21
2023-02-03T01:46:53.246Z,69.17
2023-02-03T01:49:57.915Z,69.07
2023-02-03T01:53:04.049Z,69.02
2023-02-03T01:56:06.468Z,68.99
2023-02-03T01:59:08.228Z,69.03
2023-02-03T02:02:10.563Z,69.01
2023-02-03T02:05:32.984Z,69.01
2023-02-03T02:08:36.562Z,69.31
2023-02-03T02:11:38.128Z,69.51
2023-02-03T02:14:40.448Z,69.61
2023-02-03T02:18:11.209Z,69.66
2023-02-03T02:21:31.217Z,69.59
2023-02-03T02:24:51.447Z,69.37
2023-02-03T02:28:21.191Z,69.51
2023-02-03T02:31:40.132Z,69.28
2023-02-03T02:34:54.814Z,69.25
2023-02-03T02:38:02.151Z,69.41
2023-02-03T02:41:11.331Z,69.42
2023-02-03T02:44:23.334Z,69.17
2023-02-03T02:47:25.098Z,69.46
2023-02-03T02:50:29.134Z,69.69
2023-02-03T02:53:35.780Z,70.02
2023-02-03T02:56:39.361Z,70.20
2023-02-03T02:59:41.113Z,70.34
2023-02-03T03:02:42.842Z,70.43
2023-02-03T03:06:00.142Z,70.50
2023-02-03T03:09:26.073Z,70.32
2023-02-03T03:12:44.119Z,70.21
2023-02-03T03:15:47.016Z,70.26
2023-02-03T03:19:02.034Z,69.94
2023-02-03T03:22:06.609Z,70.15
2023-02-03T03:25:18.354Z,69.99
2023-02-03T03:28:26.733Z,70.18
2023-02-03T03:31:28.599Z,70.28
2023-02-03T03:34:31.057Z,70.60
2023-02-03T03:37:36.548Z,70.45
2023-02-03T03:40:50.437Z,70.65
2023-02-03T03:43:53.329Z,70.58
2023-02-03T03:47:12.623Z,70.47
2023-02-03T03:50:18.074Z,70.54
2023-02-03T03:53:20.146Z,70.74
2023-02-03T03:56:37.815Z,70.65
2023-02-03T03:59:41.396Z,70.55
2023-02-03T04:02:46.458Z,70.58
2023-02-03T04:05:48.272Z,70.80
2023-02-03T04:08:49.855Z,71.11
2023-02-03T04:12:05.865Z,71.29
2023-02-03T04:15:07.931Z,71.23
2023-02-03T04:18:12.479Z,71.37
2023-02-03T04:21:14.039Z,71.44
2023-02-03T04:24:15.691Z,71.29
2023-02-03T04:27:17.296Z,71.13
2023-02-03T04:30:18.982Z,71.04
2023-02-03T04:33:20.558Z,70.74
2023-02-03T04:36:22.185Z,70.82
2023-02-03T04:39:23.830Z,70.80
2023-02-03T04:42:26.092Z,70.97
2023-02-03T04:45:27.713Z,71.20
2023-02-03T04:48:29.403Z,71.16
2023-02-03T04:51:30.993Z,71.54
2023-02-03T04:54:32.965Z,71.49
2023-02-03T04:57:34.848Z,71.36
2023-02-03T05:00:36.472Z,71.51
2023-02-03T05:03:38.163Z,71.35
2023-02-03T05:06:39.862Z,71.33
2023-02-03T05:09:41.479Z,71.60
2023-02-03T05:12:44.029Z,71.38
2023-02-03T05:15:45.636Z,71.37
2023-02-03T05:18:47.241Z,71.41
2023-02-03T05:21:48.835Z,71.30
2023-02-03T05:24:50.403Z,71.49
2023-02-03T05:27:52.043Z,71.91
2023-02-03T05:30:53.719Z,72.15
2023-02-03T05:33:55.362Z,72.34
2023-02-03T05:36:57.025Z,72.33
2023-02-03T05:40:18.557Z,72.17
2023-02-03T05:43:20.402Z,72.31
2023-02-03T05:46:22.057Z,72.52
2023-02-03T05:49:24.362Z,72.53
2023-02-03T05:52:25.995Z,72.60
2023-02-03T05:55:28.625Z,72.63
2023-02-03T05:58:30.248Z,72.45
2023-02-03T06:01:32.832Z,72.70
2023-02-03T06:04:34.483Z,72.59
2023-02-03T06:07:36.114Z,72.51
2023-02-03T06:10:37.807Z,72.60
2023-02-03T06:13:39.653Z,72.77
2023-02-03T06:16:41.341Z,72.95
2023-02-03T06:19:42.949Z,73.13
2023-02-03T06:22:44.512Z,73.39
2023-02-03T06:25:54.745Z,73.49
2023-02-03T06:28:56.419Z,73.42
2023-02-03T06:31:58.326Z,73.78
2023-02-03T06:35:00.092Z,73.62
2023-02-03T06:38:01.783Z,73.36
2023-02-03T06:41:03.514Z,73.28
2023-02-03T06:44:05.181Z,73.23
2023-02-03T06:47:06.805Z,73.19
2023-02-03T06:50:09.784Z,73.24
2023-02-03T06:53:11.421Z,73.38
2023-02-03T06:56:13.040Z,73.46
2023-02-03T06:59:14.687Z,73.56
2023-02-03T07:02:16.771Z,73.64
2023-02-03T07:05:18.438Z,73.55
2023-02-03T07:08:20.107Z,73.39
2023-02-03T07:11:21.942Z,73.28
2023-02-03T07:14:23.641Z,73.31
2023-02-03T07:17:25.169Z,73.22
2023-02-03T07:20:29.106Z,73.15
2023-02-03T07:23:31.168Z,73.18
2023-02-03T07:26:32.782Z,73.38
2023-02-03T07:29:34.440Z,73.58
2023-02-03T07:32:36.044Z,73.58
2023-02-03T07:35:37.674Z,73.64
2023-02-03T07:38:39.286Z,73.63
2023-02-03T07:41:40.959Z,73.61
2023-02-03T07:44:42.579Z,73.36
2023-02-03T07:47:44.526Z,73.42
2023-02-03T07:50:48.260Z,73.38
2023-02-03T07:53:49.875Z,73.31
2023-02-03T07:56:51.515Z,73.37
2023-02-03T07:59:53.412Z,73.08
2023-02-03T08:02:55.055Z,73.24
2023-02-03T08:05:56.599Z,73.23
2023-02-03T08:08:58.295Z,73.46
2023-02-03T08:11:59.927Z,73.69
2023-02-03T08:15:01.821Z,73.67
2023-02-03T08:18:03.569Z,73.72
2023-02-03T08:21:05.479Z,73.84
2023-02-03T08:24:07.230Z,73.71
2023-02-03T08:27:08.910Z,73.80
2023-02-03T08:30:13.494Z,73.59
2023-02-03T08:33:15.188Z,73.59
2023-02-03T08:36:16.813Z,73.72
2023-02-03T08:39:18.594Z,73.77
2023-02-03T08:42:20.448Z,73.83
2023-02-03T08:45:22.173Z,73.96
2023-02-03T08:48:23.867Z,74.02
2023-02-03T08:51:25.535Z,74.04
2023-02-03T08:54:27.428Z,73.92
2023-02-03T08:57:34.276Z,73.83
2023-02-03T09:00:35.994Z,73.73
2023-02-03T09:03:38.538Z,73.60
2023-02-03T09:06:40.492Z,73.43
2023-02-03T09:09:42.568Z,73.48
2023-02-03T09:12:44.287Z,73.75
2023-02-03T09:15:46.013Z,73.72
2023-02-03T09:18:48.293Z,73.89
2023-02-03T09:21:50.023Z,73.71
2023-02-03T09:24:51.994Z,73.62
2023-02-03T09:27:53.827Z,73.46
2023-02-03T09:31:00.855Z,73.47
2023-02-03T09:34:02.521Z,73.37
2023-02-03T09:37:04.695Z,73.23
2023-02-03T09:40:06.927Z,73.14
2023-02-03T09:43:42.985Z,73.17
2023-02-03T09:47:00.226Z,73.05
2023-02-03T09:50:03.304Z,73.08
2023-02-03T09:53:11.738Z,73.26
2023-02-03T09:56:33.041Z,73.38
2023-02-03T09:59:35.125Z,73.36
2023-02-03T10:02:57.063Z,73.29
2023-02-03T10:06:14.134Z,73.22
2023-02-03T10:09:46.085Z,73.21
2023-02-03T10:13:10.270Z,73.16
2023-02-03T10:16:36.263Z,73.03
2023-02-03T10:19:46.317Z,72.97
2023-02-03T10:22:55.144Z,72.86
2023-02-03T10:25:58.548Z,72.74
2023-02-03T10:29:24.914Z,72.52
2023-02-03T10:32:27.653Z,72.57
2023-02-03T10:35:39.585Z,72.72
2023-02-03T10:38:53.216Z,72.71
2023-02-03T10:41:55.034Z,72.69
2023-02-03T10:44:58.427Z,72.41
2023-02-03T10:48:00.356Z,72.26
2023-02-03T10:51:03.071Z,72.02
2023-02-03T10:54:04.824Z,71.90
2023-02-03T10:57:12.182Z,71.67
2023-02-03T11:00:17.033Z,71.61
2023-02-03T11:03:29.608Z,71.45
2023-02-03T11:06:33.128Z,71.37
2023-02-03T11:09:38.305Z,71.30
2023-02-03T11:12:39.931Z,71.02
2023-02-03T11:15:47.814Z,70.86
2023-02-03T11:19:17.377Z,70.65
2023-02-03T11:22:36.022Z,70.46
2023-02-03T11:25:38.136Z,70.37
2023-02-03T11:28:43.200Z,70.17
2023-02-03T11:31:49.453Z,69.98
2023-02-03T11:35:01.186Z,69.76
2023-02-03T11:38:02.904Z,69.70
2023-02-03T11:41:04.887Z,69.65
2023-02-03T11:44:20.859Z,69.45
2023-02-03T11:47:23.880Z,69.25
2023-02-03T11:50:31.956Z,69.01
2023-02-03T11:54:11.684Z,68.69
2023-02-03T11:57:36.789Z,68.18
2023-02-03T12:00:50.572Z,67.99
2023-02-03T12:04:08.509Z,67.74
2023-02-03T12:07:35.110Z,67.32
2023-02-03T12:11:09.961Z,67.15
2023-02-03T12:14:47.633Z,66.86
2023-02-03T12:18:05.642Z,66.73
2023-02-03T12:21:10.290Z,66.45
2023-02-03T12:24:25.092Z,66.33
2023-02-03T12:27:32.664Z,66.23
2023-02-03T12:30:47.166Z,65.90
2023-02-03T12:33:54.478Z,65.88
2023-02-03T12:37:08.067Z,65.69
2023-02-03T12:40:20.387Z,65.67
2023-02-03T12:43:42.159Z,65.44
2023-02-03T12:46:47.578Z,65.34
2023-02-03T12:49:59.797Z,65.18
2023-02-03T12:53:10.972Z,64.98
2023-02-03T12:56:15.540Z,64.84
2023-02-03T12:59:23.141Z,64.81
2023-02-03T13:02:30.939Z,64.49
2023-02-03T13:05:47.420Z,64.42
2023-02-03T13:09:06.150Z,64.36
2023-02-03T13:12:15.398Z,64.30
2023-02-03T13:15:33.182Z,64.15
2023-02-03T13:18:37.933Z,63.98
2023-02-03T13:21:39.829Z,64.06
2023-02-03T13:24:46.947Z,63.92
2023-02-03T13:28:03.083Z,63.95
2023-02-03T13:31:29.834Z,63.83
2023-02-03T13:35:00.975Z,63.89
2023-02-03T13:38:12.040Z,63.93
2023-02-03T13:41:14.194Z,63.95
2023-02-03T13:44:19.993Z,63.79
2023-02-03T13:47:27.344Z,63.91
2023-02-03T13:50:30.673Z,63.98
2023-02-03T13:53:39.407Z,63.91
2023-02-03T13:56:41.436Z,63.94
2023-02-03T13:59:45.773Z,63.87
2023-02-03T14:02:55.106Z,63.76
2023-02-03T14:05:58.662Z,63.70
2023-02-03T14:09:00.515Z,63.60
2023-02-03T14:12:30.129Z,63.54
2023-02-03T14:15:33.130Z,63.48
2023-02-03T14:18:45.018Z,63.49
2023-02-03T14:21:51.701Z,63.47
2023-02-03T14:24:55.007Z,63.32
2023-02-03T14:28:06.719Z,63.29
2023-02-03T14:31:17.629Z,63.27
2023-02-03T14:34:29.608Z,63.21
2023-02-03T14:37:31.571Z,63.08
2023-02-03T14:40:52.100Z,63.06
2023-02-03T14:44:32.989Z,62.93
2023-02-03T14:47:34.734Z,63.02
2023-02-03T14:51:04.370Z,62.96
2023-02-03T14:54:18.168Z,62.84
2023-02-03T14:57:40.290Z,62.83
2023-02-03T15:00:42.005Z,62.80
2023-02-03T15:04:12.702Z,62.68
2023-02-03T15:07:49.446Z,62.72
2023-02-03T15:10:51.364Z,62.71
2023-02-03T15:13:54.350Z,62.72
2023-02-03T15:17:13.976Z,62.73
2023-02-03T15:20:41.539Z,62.69
2023-02-03T15:23:48.355Z,62.75
2023-02-03T15:26:53.180Z,62.82
2023-02-03T15:29:57.267Z,62.83
2023-02-03T15:33:15.067Z,62.91
2023-02-03T15:36:28.138Z,62.83
2023-02-03T15:39:54.071Z,63.04
2023-02-03T15:43:01.493Z,63.14
2023-02-03T15:46:28.027Z,63.13
2023-02-03T15:49:54.607Z,63.35
2023-02-03T15:53:01.392Z,63.71
2023-02-03T15:56:05.529Z,63.96
2023-02-03T15:59:40.240Z,64.07
2023-02-03T16:02:45.914Z,64.06
2023-02-03T16:05:51.556Z,64.05
2023-02-03T16:08:54.863Z,64.12
2023-02-03T16:12:16.444Z,63.97
2023-02-03T16:15:22.262Z,64.11
2023-02-03T16:18:24.434Z,64.13
2023-02-03T16:21:31.034Z,64.39
2023-02-03T16:24:32.720Z,64.44
2023-02-03T16:27:34.508Z,64.38
2023-02-03T16:30:55.229Z,64.66
2023-02-03T16:34:15.612Z,64.84
2023-02-03T16:37:54.025Z,65.21
2023-02-03T16:41:14.729Z,65.51
2023-02-03T16:44:35.847Z,65.74
2023-02-03T16:47:57.671Z,65.63
2023-02-03T16:51:05.575Z,65.58
2023-02-03T16:54:10.565Z,65.63
2023-02-03T16:57:12.261Z,65.58
2023-02-03T17:00:14.913Z,65.48
2023-02-03T17:03:22.567Z,65.44
2023-02-03T17:06:24.212Z,65.64
2023-02-03T17:09:25.982Z,65.73
2023-02-03T17:12:30.818Z,65.87
2023-02-03T17:15:32.659Z,66.11
2023-02-03T17:18:35.312Z,66.44
2023-02-03T17:21:37.635Z,66.63
2023-02-03T17:24:39.371Z,66.81
2023-02-03T17:27:41.165Z,66.74
2023-02-03T17:30:42.947Z,66.77
2023-02-03T17:33:45.085Z,66.96
2023-02-03T17:36:46.759Z,67.01
2023-02-03T17:56:08.815Z,67.70
2023-02-03T17:59:10.527Z,67.84
2023-02-03T18:02:12.251Z,68.08
2023-02-03T18:05:13.871Z,68.12
2023-02-03T18:08:16.693Z,68.04
2023-02-03T18:11:21.932Z,68.18
2023-02-03T18:14:23.725Z,68.18
2023-02-03T18:17:25.343Z,68.23
2023-02-03T18:20:27.257Z,68.14
2023-02-03T18:23:29.882Z,68.17
2023-02-03T18:26:34.772Z,68.31
2023-02-03T18:29:36.717Z,68.64
2023-02-03T18:32:38.425Z,68.79
2023-02-03T18:35:40.018Z,68.97
2023-02-03T18:38:43.391Z,68.86
2023-02-03T18:41:45.040Z,68.83
2023-02-03T18:44:46.712Z,68.87
2023-02-03T18:47:48.446Z,69.09
2023-02-03T18:50:50.096Z,69.01
2023-02-03T18:53:52.289Z,68.95
2023-02-03T18:56:53.933Z,69.10
2023-02-03T18:59:55.822Z,69.29
2023-02-03T19:02:57.636Z,69.50
2023-02-03T19:06:09.688Z,69.57
2023-02-03T19:09:13.168Z,69.48
2023-02-03T19:12:14.949Z,69.74
2023-02-03T19:15:16.841Z,69.69
2023-02-03T19:18:18.567Z,69.70
2023-02-03T19:21:20.232Z,69.71
2023-02-03T19:24:22.098Z,69.84
2023-02-03T19:27:24.474Z,69.78
2023-02-03T19:30:26.235Z,69.85
2023-02-03T19:33:27.998Z,69.92
2023-02-03T19:36:30.917Z,70.06
2023-02-03T19:39:32.765Z,70.10
2023-02-03T19:42:34.409Z,70.18
2023-02-03T19:45:36.278Z,70.20
2023-02-03T19:48:38.668Z,70.14
2023-02-03T19:51:40.420Z,70.06
2023-02-03T19:54:42.153Z,70.20
2023-02-03T19:57:43.906Z,70.56
2023-02-03T20:00:45.489Z,71.06
2023-02-03T20:03:47.602Z,71.14
2023-02-03T20:06:49.302Z,71.33
2023-02-03T20:09:51.435Z,71.22
2023-02-03T20:12:54.893Z,71.18
2023-02-03T20:15:56.757Z,71.14
2023-02-03T20:18:58.467Z,71.28
2023-02-03T20:22:01.029Z,71.44
2023-02-03T20:25:02.687Z,71.33
2023-02-03T20:28:05.436Z,71.67
2023-02-03T20:31:07.314Z,71.97
2023-02-03T20:34:09.850Z,72.22
2023-02-03T20:37:12.000Z,72.23
2023-02-03T20:40:17.089Z,72.32
2023-02-03T20:43:22.610Z,72.35
2023-02-03T20:46:24.501Z,72.34
2023-02-03T20:49:26.287Z,72.25
2023-02-03T20:52:27.900Z,72.29
2023-02-03T20:55:29.590Z,72.26
2023-02-03T20:58:34.837Z,72.41
2023-02-03T21:01:36.558Z,72.59
2023-02-03T21:04:56.784Z,72.51
2023-02-03T21:07:58.649Z,72.57
2023-02-03T21:11:00.290Z,72.53
2023-02-03T21:14:05.524Z,72.52
2023-02-03T21:17:26.530Z,72.59
2023-02-03T21:20:31.267Z,72.66
2023-02-03T21:23:39.972Z,72.90
2023-02-03T21:26:41.622Z,73.11
2023-02-03T21:29:43.229Z,73.15
2023-02-03T21:32:45.363Z,73.10
2023-02-03T21:35:47.079Z,73.11
2023-02-03T21:38:51.339Z,73.04
2023-02-03T21:41:53.115Z,73.24
2023-02-03T21:44:54.776Z,73.23
2023-02-03T21:47:57.184Z,73.59
2023-02-03T21:51:15.432Z,73.65
2023-02-03T21:54:41.710Z,73.78
2023-02-03T21:57:43.445Z,73.82
2023-02-03T22:00:48.656Z,73.65
2023-02-03T22:03:51.855Z,73.51
2023-02-03T22:06:54.429Z,73.35
2023-02-03T22:09:56.055Z,73.44
2023-02-03T22:12:57.685Z,73.54
2023-02-03T22:15:59.533Z,73.39
2023-02-03T22:19:01.156Z,73.44
2023-02-03T22:22:02.804Z,73.48
2023-02-03T22:25:04.663Z,73.33
2023-02-03T22:28:06.499Z,73.34
2023-02-03T22:31:09.135Z,73.27
2023-02-03T22:34:11.083Z,73.23
2023-02-03T22:37:12.734Z,73.36
2023-02-03T22:40:14.483Z,73.51
2023-02-03T22:43:16.112Z,73.60
2023-02-03T22:46:17.916Z,73.52
2023-02-03T22:49:19.642Z,73.41
2023-02-03T22:52:21.312Z,73.39
2023-02-03T22:55:23.232Z,73.14
2023-02-03T22:58:24.806Z,73.31
2023-02-03T23:01:26.522Z,73.32
2023-02-03T23:04:28.176Z,73.44
2023-02-03T23:07:29.802Z,73.44
2023-02-03T23:10:31.987Z,73.51
2023-02-03T23:13:33.897Z,73.42
2023-02-03T23:16:36.472Z,73.33
2023-02-03T23:19:38.101Z,73.37
2023-02-03T23:22:39.861Z,73.33
2023-02-03T23:25:41.460Z,73.25
2023-02-03T23:28:43.079Z,73.12
2023-02-03T23:31:44.952Z,73.16
2023-02-03T23:35:05.599Z,73.27
2023-02-03T23:38:07.290Z,73.49
2023-02-03T23:41:08.922Z,73.55
2023-02-03T23:44:11.810Z,73.61
2023-02-03T23:47:13.496Z,73.69
2023-02-03T23:50:16.529Z,73.57
2023-02-03T23:53:18.149Z,73.67
2023-02-03T23:56:19.755Z,73.63
2023-02-03T23:59:21.423Z,73.61
